Hlavní strana
METAR-TAF:

METAR-TAF

Letiště :

Gastonia Municipal Airport

Gastonia, Severní Karolína, Spojené státy americké

zeměpisná šířka: 35-11-48N, zeměpisná délka: 081-09-21W, výška: 243 m

Aktuální stav počasí

Zpráva byla vytvořena před 17 minutami, v 17:54 UTC
Severoseverovýchodní vítr 6 kt
Teplota 7°C
Vlhkost vzduchu 66%
Tlak 1021 hPa
Viditelnost: 9.7 km
Zataženo ve výšce 9500 ft
slabý déšť

METAR: KAKH 151754Z AUTO 03006KT 6SM -RA OVC095 07/01 A3014 RMK AO2 SLP211 P0002 60006 T00720011 10078 20050 58018

Čas: 13:11 (18:11 UTC)


TAF: chybějící

Stav a předpovědi počasí z více než 4 000 letišť (zprávy METAR a TAF).

Červené a žluté tečky na mapě představují dostupné meteorologické stanice.

Když kurzor umístíte na tečku, zobrazí se název stanice.

Pak kliknutím zobrazíte stav a předpověď počasí.

Chcete-li změnit mapu, kliknutím na zelené tlačítko se znaménkem +mapu přiblížíte, kliknutím na zelené tlačítko se znaménkem – mapu oddálíte a kliknutím na zelené šipky přejdete na sousední mapy.


METAR-TAF: